Time;durP1;ratioP1;P1;durP2;ratioP2;P2;SDS_P1;SDS_P2;PMS_P1;PMS_P2;Temp;Humidity;BMP_temperature;BMP_pressure;BME280_temperature;BME280_humidity;BME280_pressure;Samples;Min_cycle;Max_cycle;Signal;HPM_P1;HPM_P2
2023/03/18 00:04:15;;;;;;;;;;;20.60;51.10;;;;;;4895302;55;20124;-35
2023/03/18 00:09:16;;;;;;;;;;;20.60;51.00;;;;;;4797875;55;20327;-34
2023/03/18 00:14:18;;;;;;;;;;;20.60;50.90;;;;;;4751974;56;20382;-35
2023/03/18 00:19:18;;;;;;;;;;;20.60;50.90;;;;;;4751949;58;20381;-36
2023/03/18 00:24:19;;;;;;;;;;;20.60;50.90;;;;;;4751350;58;20104;-34
2023/03/18 00:29:20;;;;;;;;;;;20.60;50.90;;;;;;5160108;55;20148;-36
2023/03/18 00:34:20;;;;;;;;;;;20.60;50.90;;;;;;4799458;55;20068;-35
2023/03/18 00:39:25;;;;;;;;;;;20.60;51.20;;;;;;4811393;55;20399;-34
2023/03/18 00:44:26;;;;;;;;;;;20.60;50.80;;;;;;4923962;55;20331;-32
2023/03/18 00:49:26;;;;;;;;;;;20.60;50.80;;;;;;4826687;55;20052;-34
2023/03/18 00:54:27;;;;;;;;;;;20.60;50.80;;;;;;4833572;55;20108;-34
2023/03/18 00:59:28;;;;;;;;;;;20.50;50.70;;;;;;4824528;55;20335;-35
2023/03/18 01:04:30;;;;;;;;;;;20.50;50.70;;;;;;4751476;58;20120;-36
2023/03/18 01:09:31;;;;;;;;;;;20.50;50.70;;;;;;4910915;55;20350;-35
2023/03/18 01:14:31;;;;;;;;;;;20.50;51.20;;;;;;4819671;55;20105;-35
2023/03/18 01:19:32;;;;;;;;;;;20.50;50.50;;;;;;4834202;55;20065;-35
2023/03/18 01:24:34;;;;;;;;;;;20.50;50.60;;;;;;4847994;55;20427;-35
2023/03/18 01:29:35;;;;;;;;;;;20.50;50.50;;;;;;4877612;55;20346;-35
2023/03/18 01:34:36;;;;;;;;;;;20.50;50.60;;;;;;4981597;55;20105;-35
2023/03/18 01:39:36;;;;;;;;;;;20.50;50.60;;;;;;5238256;55;20383;-35
2023/03/18 01:44:37;;;;;;;;;;;20.50;51.10;;;;;;4751233;58;20116;-34
2023/03/18 01:49:48;;;;;;;;;;;20.50;50.50;;;;;;4797529;55;20065;-36
2023/03/18 01:54:54;;;;;;;;;;;20.50;51.10;;;;;;5130979;54;20311;-35
2023/03/18 01:59:56;;;;;;;;;;;20.50;50.40;;;;;;4844804;55;20121;-34
2023/03/18 02:05:00;;;;;;;;;;;20.50;50.40;;;;;;4751690;58;20366;-35
2023/03/18 02:10:04;;;;;;;;;;;20.50;50.30;;;;;;5124199;55;20280;-33
2023/03/18 02:15:09;;;;;;;;;;;20.50;50.30;;;;;;4882534;55;20064;-35
2023/03/18 02:22:01;;;;;;;;;;;20.50;50.40;;;;;;4799470;55;20294;-35
2023/03/18 02:27:49;;;;;;;;;;;20.50;50.20;;;;;;4930943;55;20339;-36
2023/03/18 02:32:50;;;;;;;;;;;20.50;50.30;;;;;;4868973;55;20310;-34
2023/03/18 02:37:51;;;;;;;;;;;20.50;50.20;;;;;;4751919;58;20056;-35
2023/03/18 02:42:52;;;;;;;;;;;20.50;50.20;;;;;;4819813;55;20314;-36
2023/03/18 02:47:52;;;;;;;;;;;20.50;50.20;;;;;;4979653;55;20128;-35
2023/03/18 02:52:53;;;;;;;;;;;20.50;50.20;;;;;;4814662;55;20068;-36
2023/03/18 02:57:54;;;;;;;;;;;20.50;50.20;;;;;;4856430;55;20116;-35
2023/03/18 03:02:55;;;;;;;;;;;20.50;50.10;;;;;;4852438;55;20363;-34
2023/03/18 03:07:56;;;;;;;;;;;20.50;50.10;;;;;;4894472;55;20056;-34
2023/03/18 03:12:57;;;;;;;;;;;20.50;50.10;;;;;;4803300;55;20069;-35
2023/03/18 03:17:58;;;;;;;;;;;20.50;49.80;;;;;;4751670;55;20068;-34
2023/03/18 03:22:59;;;;;;;;;;;20.50;50.00;;;;;;4871700;55;20282;-34
2023/03/18 03:28:00;;;;;;;;;;;20.50;50.00;;;;;;4821655;55;20057;-31
2023/03/18 03:33:01;;;;;;;;;;;20.50;50.00;;;;;;5128675;55;20306;-34
2023/03/18 03:38:02;;;;;;;;;;;20.50;50.00;;;;;;4752100;58;20338;-34
2023/03/18 03:43:02;;;;;;;;;;;20.50;49.90;;;;;;4873232;55;20080;-35
2023/03/18 03:48:03;;;;;;;;;;;20.50;50.00;;;;;;4752152;58;20131;-35
2023/03/18 03:53:05;;;;;;;;;;;20.50;49.90;;;;;;4868328;55;20105;-34
2023/03/18 03:58:06;;;;;;;;;;;20.50;49.90;;;;;;4995937;55;20773;-32
2023/03/18 04:03:07;;;;;;;;;;;20.50;49.90;;;;;;4837981;55;20073;-34
2023/03/18 04:08:08;;;;;;;;;;;20.50;49.80;;;;;;5052102;55;20067;-33
2023/03/18 04:13:09;;;;;;;;;;;20.50;49.80;;;;;;4898993;55;20116;-34
2023/03/18 04:18:10;;;;;;;;;;;20.40;49.90;;;;;;4788503;55;20096;-35
2023/03/18 04:23:11;;;;;;;;;;;20.50;50.00;;;;;;4965651;55;20298;-35
2023/03/18 04:28:13;;;;;;;;;;;20.40;50.00;;;;;;4909595;55;20056;-34
2023/03/18 04:33:13;;;;;;;;;;;20.40;50.10;;;;;;5238494;55;20298;-34
2023/03/18 04:38:14;;;;;;;;;;;20.40;50.10;;;;;;4814456;55;20068;-28
2023/03/18 04:43:15;;;;;;;;;;;20.40;50.10;;;;;;4878400;55;20346;-34
2023/03/18 04:48:15;;;;;;;;;;;20.50;50.10;;;;;;4780267;55;20076;-34
2023/03/18 04:53:16;;;;;;;;;;;20.40;50.10;;;;;;4908644;55;20160;-33
2023/03/18 04:58:16;;;;;;;;;;;20.40;50.10;;;;;;4751979;55;20303;-34
2023/03/18 05:03:17;;;;;;;;;;;20.40;50.10;;;;;;4751912;58;20114;-34
2023/03/18 05:08:18;;;;;;;;;;;20.40;50.10;;;;;;4751741;55;20137;-35
2023/03/18 05:13:18;;;;;;;;;;;20.40;50.10;;;;;;4751654;58;20068;-34
2023/03/18 05:18:19;;;;;;;;;;;20.40;50.10;;;;;;4773754;55;20068;-35
2023/03/18 05:23:21;;;;;;;;;;;20.40;50.00;;;;;;4818851;55;20077;-32
2023/03/18 05:28:22;;;;;;;;;;;20.40;50.10;;;;;;4769615;55;20291;-35
2023/03/18 05:33:22;;;;;;;;;;;20.40;50.00;;;;;;4957736;55;20168;-35
2023/03/18 05:38:23;;;;;;;;;;;20.40;50.00;;;;;;4929168;55;20096;-34
2023/03/18 05:43:25;;;;;;;;;;;20.40;50.30;;;;;;4763658;55;20369;-33
2023/03/18 05:48:25;;;;;;;;;;;20.40;50.00;;;;;;4751940;58;20283;-34
2023/03/18 05:53:26;;;;;;;;;;;20.40;49.90;;;;;;4751662;58;20108;-35
2023/03/18 05:58:30;;;;;;;;;;;20.40;49.90;;;;;;4844319;55;20108;-34
2023/03/18 06:03:30;;;;;;;;;;;20.40;49.80;;;;;;4771663;55;20287;-35
2023/03/18 06:08:31;;;;;;;;;;;20.40;49.80;;;;;;4770342;55;20128;-35
2023/03/18 06:13:32;;;;;;;;;;;20.40;49.80;;;;;;4816479;55;20057;-35
2023/03/18 06:18:34;;;;;;;;;;;20.40;49.80;;;;;;4755587;55;20083;-35
2023/03/18 06:23:35;;;;;;;;;;;20.40;49.80;;;;;;4813722;55;20256;-32
2023/03/18 06:28:36;;;;;;;;;;;20.40;49.80;;;;;;4949322;55;20117;-35
2023/03/18 06:33:37;;;;;;;;;;;20.40;49.80;;;;;;4771586;55;20270;-33
2023/03/18 06:38:37;;;;;;;;;;;20.40;49.80;;;;;;4751662;58;20299;-34
2023/03/18 06:43:38;;;;;;;;;;;20.40;49.80;;;;;;4751659;58;20135;-34
2023/03/18 06:48:39;;;;;;;;;;;20.40;49.80;;;;;;4752163;58;20295;-32
2023/03/18 06:53:40;;;;;;;;;;;20.40;49.80;;;;;;4752067;55;20385;-33
2023/03/18 06:58:41;;;;;;;;;;;20.40;49.70;;;;;;4752040;56;20298;-35
2023/03/18 07:03:42;;;;;;;;;;;20.40;49.80;;;;;;4798056;55;20072;-35
2023/03/18 07:08:43;;;;;;;;;;;20.40;49.80;;;;;;4839807;55;20315;-34
2023/03/18 07:13:44;;;;;;;;;;;20.40;49.80;;;;;;4835552;55;20349;-34
2023/03/18 07:18:45;;;;;;;;;;;20.30;49.70;;;;;;4889117;55;20069;-35
2023/03/18 07:23:46;;;;;;;;;;;20.30;50.00;;;;;;4843933;55;20286;-35
2023/03/18 07:28:46;;;;;;;;;;;20.30;49.70;;;;;;4782462;55;20120;-44
2023/03/18 07:33:47;;;;;;;;;;;20.40;49.80;;;;;;4906755;55;20112;-35
2023/03/18 07:38:48;;;;;;;;;;;20.30;50.30;;;;;;4905547;55;20342;-36
2023/03/18 07:43:48;;;;;;;;;;;20.30;49.70;;;;;;4839396;55;20064;-36
2023/03/18 07:48:49;;;;;;;;;;;20.30;49.70;;;;;;4805814;55;20072;-34
2023/03/18 07:53:50;;;;;;;;;;;20.30;49.70;;;;;;4901345;55;20271;-34
2023/03/18 07:58:51;;;;;;;;;;;20.30;49.70;;;;;;4981634;55;20052;-35
2023/03/18 08:03:52;;;;;;;;;;;20.40;49.80;;;;;;4847840;55;20291;-34
2023/03/18 08:08:53;;;;;;;;;;;20.30;49.70;;;;;;4751720;58;20068;-34
2023/03/18 08:13:53;;;;;;;;;;;20.30;49.80;;;;;;4941769;55;20290;-33
2023/03/18 08:18:54;;;;;;;;;;;20.30;49.70;;;;;;4799033;55;20057;-35
2023/03/18 08:23:55;;;;;;;;;;;20.30;49.70;;;;;;4751565;58;20068;-33
2023/03/18 08:28:56;;;;;;;;;;;20.30;49.80;;;;;;4751978;55;20323;-35
2023/03/18 08:33:58;;;;;;;;;;;20.30;49.90;;;;;;4861341;55;20064;-34
2023/03/18 08:38:58;;;;;;;;;;;20.30;49.90;;;;;;4786347;55;20358;-35
2023/03/18 08:44:00;;;;;;;;;;;20.30;49.90;;;;;;4827163;55;20068;-36
2023/03/18 08:49:01;;;;;;;;;;;20.40;50.10;;;;;;4802902;55;20343;-34
2023/03/18 08:54:02;;;;;;;;;;;20.30;50.00;;;;;;4819328;55;20072;-35
2023/03/18 08:59:02;;;;;;;;;;;20.30;50.10;;;;;;4815258;55;20124;-35
2023/03/18 09:04:03;;;;;;;;;;;20.30;50.10;;;;;;4821833;55;20283;-34
2023/03/18 09:09:04;;;;;;;;;;;20.30;50.20;;;;;;4900213;55;20121;-35
2023/03/18 09:14:04;;;;;;;;;;;20.30;50.20;;;;;;5050462;55;20221;-35
2023/03/18 09:19:05;;;;;;;;;;;20.40;50.30;;;;;;4806507;55;20065;-35
2023/03/18 09:24:06;;;;;;;;;;;20.40;50.50;;;;;;4760062;55;20108;-34
2023/03/18 09:29:06;;;;;;;;;;;20.30;50.40;;;;;;4751247;58;20260;-35
2023/03/18 09:34:07;;;;;;;;;;;20.30;50.40;;;;;;5107619;55;20071;-34
2023/03/18 09:39:08;;;;;;;;;;;20.40;50.50;;;;;;4808322;55;20072;-35
2023/03/18 09:44:42;;;;;;;;;;;20.30;50.50;;;;;;4751566;58;20300;-33
2023/03/18 09:50:01;;;;;;;;;;;20.30;50.50;;;;;;4754063;55;20091;-35
2023/03/18 09:55:04;;;;;;;;;;;20.30;50.50;;;;;;4768041;55;20308;-33
2023/03/18 10:00:12;;;;;;;;;;;20.30;50.60;;;;;;4866626;55;20350;-36
2023/03/18 10:05:24;;;;;;;;;;;20.40;50.60;;;;;;4966144;55;20314;-35
2023/03/18 10:10:28;;;;;;;;;;;20.40;50.60;;;;;;4859662;55;20406;-34
2023/03/18 10:15:31;;;;;;;;;;;20.40;50.60;;;;;;4771083;55;20120;-34
2023/03/18 10:22:03;;;;;;;;;;;20.40;50.70;;;;;;4828525;55;20125;-34
2023/03/18 10:27:54;;;;;;;;;;;20.40;50.60;;;;;;4751209;55;20418;-33
2023/03/18 10:33:02;;;;;;;;;;;20.40;50.60;;;;;;4796884;55;20065;-33
2023/03/18 10:38:26;;;;;;;;;;;20.40;50.60;;;;;;4832246;55;20375;-35
2023/03/18 10:43:31;;;;;;;;;;;20.40;50.60;;;;;;4842420;55;20120;-36
2023/03/18 10:48:33;;;;;;;;;;;20.40;50.70;;;;;;4769389;55;20299;-34
2023/03/18 10:53:57;;;;;;;;;;;20.40;50.70;;;;;;4751782;55;20108;-36
2023/03/18 10:58:58;;;;;;;;;;;20.40;50.80;;;;;;4828663;55;20290;-35
2023/03/18 11:04:00;;;;;;;;;;;20.40;50.70;;;;;;4751603;55;20053;-35
2023/03/18 11:09:05;;;;;;;;;;;20.40;50.80;;;;;;4933402;55;20307;-34
2023/03/18 11:14:12;;;;;;;;;;;20.40;50.80;;;;;;4815672;55;20370;-35
2023/03/18 11:19:37;;;;;;;;;;;20.40;50.80;;;;;;4848929;55;20125;-36
2023/03/18 11:24:41;;;;;;;;;;;20.40;50.90;;;;;;4921912;55;20357;-36
2023/03/18 11:29:44;;;;;;;;;;;20.40;50.90;;;;;;5223937;55;20243;-37
2023/03/18 11:34:52;;;;;;;;;;;20.40;51.00;;;;;;4792452;55;20346;-35
2023/03/18 11:40:05;;;;;;;;;;;20.40;51.00;;;;;;4822701;55;20084;-35
2023/03/18 11:45:31;;;;;;;;;;;20.40;50.90;;;;;;4794027;55;20360;-34
2023/03/18 11:50:40;;;;;;;;;;;20.40;51.00;;;;;;4915812;55;20307;-34
2023/03/18 11:55:56;;;;;;;;;;;20.40;51.00;;;;;;4827069;55;20327;-34
2023/03/18 12:01:07;;;;;;;;;;;20.40;51.00;;;;;;4777830;55;20072;-34
2023/03/18 12:07:41;;;;;;;;;;;20.40;51.10;;;;;;4774460;55;20056;-34
2023/03/18 12:12:51;;;;;;;;;;;20.40;51.20;;;;;;4800913;55;20313;-36
2023/03/18 12:18:05;;;;;;;;;;;20.40;51.20;;;;;;4916092;55;20350;-34
2023/03/18 12:26:05;;;;;;;;;;;20.40;51.20;;;;;;4806766;55;20078;-35
2023/03/18 12:31:12;;;;;;;;;;;20.50;51.20;;;;;;4910718;55;20105;-36
2023/03/18 12:36:24;;;;;;;;;;;20.40;51.20;;;;;;4852061;55;20426;-35
2023/03/18 12:42:59;;;;;;;;;;;20.40;51.30;;;;;;4812288;55;20056;-34
2023/03/18 12:48:03;;;;;;;;;;;20.40;51.30;;;;;;4804397;55;20123;-35
2023/03/18 12:53:10;;;;;;;;;;;20.40;51.30;;;;;;4829603;55;20295;-35
2023/03/18 12:58:14;;;;;;;;;;;20.40;51.40;;;;;;4787990;55;20080;-35
2023/03/18 13:03:50;;;;;;;;;;;20.40;51.40;;;;;;4824441;55;20354;-35
2023/03/18 13:09:00;;;;;;;;;;;20.40;51.40;;;;;;4807182;55;20387;-35
2023/03/18 13:14:06;;;;;;;;;;;20.40;51.50;;;;;;4751829;58;20065;-36
2023/03/18 13:19:07;;;;;;;;;;;20.40;51.40;;;;;;4776479;55;20112;-35
2023/03/18 13:24:14;;;;;;;;;;;20.40;51.40;;;;;;4751469;55;20128;-35
2023/03/18 13:29:32;;;;;;;;;;;20.40;51.40;;;;;;4828572;55;20076;-35
2023/03/18 13:34:55;;;;;;;;;;;20.50;51.50;;;;;;4751892;58;20346;-34
2023/03/18 13:40:16;;;;;;;;;;;20.50;51.50;;;;;;4913505;55;20066;-35
2023/03/18 13:45:35;;;;;;;;;;;20.50;51.50;;;;;;4954412;55;20270;-34
2023/03/18 13:50:43;;;;;;;;;;;20.50;51.50;;;;;;4903043;55;20342;-35
2023/03/18 13:56:17;;;;;;;;;;;20.50;51.40;;;;;;4801953;55;20073;-34
2023/03/18 14:01:27;;;;;;;;;;;20.50;51.40;;;;;;4772656;55;20129;-35
2023/03/18 14:07:49;;;;;;;;;;;20.50;51.50;;;;;;4790850;55;20311;-35
2023/03/18 14:12:50;;;;;;;;;;;20.50;51.30;;;;;;4751880;55;20100;-33
2023/03/18 14:17:57;;;;;;;;;;;20.50;51.40;;;;;;4949582;55;20068;-35
2023/03/18 14:23:18;;;;;;;;;;;20.50;51.30;;;;;;4930442;55;20322;-34
2023/03/18 14:28:21;;;;;;;;;;;20.50;51.30;;;;;;4991746;55;20116;-34
2023/03/18 14:33:32;;;;;;;;;;;20.50;51.30;;;;;;4751545;58;20076;-34
2023/03/18 14:38:48;;;;;;;;;;;20.50;51.30;;;;;;4770212;55;20306;-35
2023/03/18 14:43:56;;;;;;;;;;;20.50;51.30;;;;;;4830090;55;20359;-35
2023/03/18 14:48:57;;;;;;;;;;;20.50;51.20;;;;;;4752050;55;20339;-35
2023/03/18 14:54:06;;;;;;;;;;;20.50;51.20;;;;;;4779547;55;20112;-34
2023/03/18 14:59:14;;;;;;;;;;;20.50;51.30;;;;;;4907077;55;20368;-34
2023/03/18 15:04:22;;;;;;;;;;;20.50;51.80;;;;;;4808753;55;20327;-36
2023/03/18 15:09:27;;;;;;;;;;;20.50;51.20;;;;;;4769603;55;20339;-32
2023/03/18 15:14:33;;;;;;;;;;;20.50;51.20;;;;;;4751806;58;20068;-36
2023/03/18 15:19:33;;;;;;;;;;;20.50;51.20;;;;;;4814812;55;20310;-32
2023/03/18 15:24:34;;;;;;;;;;;20.50;51.30;;;;;;4751508;58;20072;-36
2023/03/18 15:29:36;;;;;;;;;;;20.50;51.30;;;;;;4942791;55;20315;-34
2023/03/18 15:34:37;;;;;;;;;;;20.50;51.30;;;;;;4752098;55;20056;-35
2023/03/18 15:39:38;;;;;;;;;;;20.50;51.30;;;;;;4871204;55;20065;-35
2023/03/18 15:44:39;;;;;;;;;;;20.50;51.30;;;;;;4751925;55;20282;-35
2023/03/18 15:49:54;;;;;;;;;;;20.50;51.30;;;;;;4777189;55;20072;-35
2023/03/18 15:54:55;;;;;;;;;;;20.50;51.30;;;;;;4812581;55;20111;-34
2023/03/18 15:59:55;;;;;;;;;;;20.50;51.30;;;;;;4793109;55;20290;-34
2023/03/18 16:05:06;;;;;;;;;;;20.50;51.30;;;;;;5189402;55;20069;-36
2023/03/18 16:10:08;;;;;;;;;;;20.40;51.10;;;;;;4752029;58;20308;-34
2023/03/18 16:15:13;;;;;;;;;;;20.50;51.20;;;;;;4790521;55;20303;-35
2023/03/18 16:20:17;;;;;;;;;;;20.50;51.20;;;;;;4798487;55;20120;-35
2023/03/18 16:25:18;;;;;;;;;;;20.50;51.20;;;;;;4823187;55;20069;-33
2023/03/18 16:30:22;;;;;;;;;;;20.50;51.20;;;;;;4878990;55;20350;-34
2023/03/18 16:35:29;;;;;;;;;;;20.50;51.20;;;;;;4946390;55;20379;-35
2023/03/18 16:40:30;;;;;;;;;;;20.50;51.20;;;;;;4752050;58;20320;-35
2023/03/18 16:45:32;;;;;;;;;;;20.50;51.20;;;;;;4786358;55;20150;-35
2023/03/18 16:50:35;;;;;;;;;;;20.50;51.10;;;;;;4807018;55;20140;-35
2023/03/18 16:55:35;;;;;;;;;;;20.50;51.10;;;;;;4751177;58;20056;-35
2023/03/18 17:00:37;;;;;;;;;;;20.50;51.10;;;;;;4874899;55;20065;-35
2023/03/18 17:05:37;;;;;;;;;;;20.50;51.10;;;;;;4837804;55;20339;-33
2023/03/18 17:10:38;;;;;;;;;;;20.50;51.10;;;;;;4808586;55;20076;-36
2023/03/18 17:15:40;;;;;;;;;;;20.50;51.10;;;;;;4805372;55;20065;-34
2023/03/18 17:20:42;;;;;;;;;;;20.50;51.10;;;;;;4751768;58;20342;-34
2023/03/18 17:25:48;;;;;;;;;;;20.50;51.00;;;;;;4928243;55;20334;-35
2023/03/18 17:30:49;;;;;;;;;;;20.50;51.60;;;;;;4842290;55;20101;-35
2023/03/18 17:35:51;;;;;;;;;;;20.50;51.00;;;;;;4787592;55;20449;-34
2023/03/18 17:40:52;;;;;;;;;;;20.50;50.90;;;;;;4819185;55;20105;-35
2023/03/18 17:45:54;;;;;;;;;;;20.50;50.90;;;;;;4864225;55;20343;-35
2023/03/18 17:50:59;;;;;;;;;;;20.50;50.90;;;;;;4797207;55;20298;-34
2023/03/18 17:56:01;;;;;;;;;;;20.50;50.90;;;;;;4804307;55;20334;-35
2023/03/18 18:01:04;;;;;;;;;;;20.50;50.90;;;;;;4752022;55;20342;-35
2023/03/18 18:06:05;;;;;;;;;;;20.50;50.90;;;;;;4774778;55;20072;-35
2023/03/18 18:11:14;;;;;;;;;;;20.50;50.80;;;;;;4891409;55;20057;-35
2023/03/18 18:16:16;;;;;;;;;;;20.50;50.90;;;;;;4844327;55;20064;-35
2023/03/18 18:21:19;;;;;;;;;;;20.50;50.80;;;;;;4792810;55;20282;-35
2023/03/18 18:26:20;;;;;;;;;;;20.50;50.80;;;;;;4820081;55;20354;-35
2023/03/18 18:31:22;;;;;;;;;;;20.50;50.80;;;;;;4877571;55;20299;-35
2023/03/18 18:36:26;;;;;;;;;;;20.50;50.80;;;;;;4786094;55;20351;-35
2023/03/18 18:41:27;;;;;;;;;;;20.50;50.80;;;;;;4752047;58;20291;-35
2023/03/18 18:46:29;;;;;;;;;;;20.40;50.80;;;;;;4773166;55;20052;-35
2023/03/18 18:51:30;;;;;;;;;;;20.50;50.80;;;;;;4854002;55;20302;-34
2023/03/18 18:56:35;;;;;;;;;;;20.50;50.80;;;;;;4790653;55;20339;-35
2023/03/18 19:01:35;;;;;;;;;;;20.50;50.80;;;;;;4853808;55;20415;-35
2023/03/18 19:06:36;;;;;;;;;;;20.50;50.80;;;;;;4754200;55;20084;-34
2023/03/18 19:11:37;;;;;;;;;;;20.50;50.90;;;;;;4987451;55;20311;-34
2023/03/18 19:16:37;;;;;;;;;;;20.50;50.80;;;;;;4905772;55;20366;-34
2023/03/18 19:21:38;;;;;;;;;;;20.50;50.80;;;;;;4835408;55;20100;-35
2023/03/18 19:26:39;;;;;;;;;;;20.50;50.80;;;;;;4854386;55;20112;-34
2023/03/18 19:31:40;;;;;;;;;;;20.50;50.80;;;;;;4765892;55;20065;-35
2023/03/18 19:36:40;;;;;;;;;;;20.50;50.80;;;;;;4771335;55;20060;-33
2023/03/18 19:41:42;;;;;;;;;;;20.50;50.80;;;;;;4959434;55;20068;-35
2023/03/18 19:46:43;;;;;;;;;;;20.50;50.80;;;;;;4864925;55;20072;-35
2023/03/18 19:51:43;;;;;;;;;;;20.50;50.80;;;;;;4949954;55;20101;-33
2023/03/18 19:56:45;;;;;;;;;;;20.50;50.80;;;;;;4769937;55;20068;-35
2023/03/18 20:01:46;;;;;;;;;;;20.50;50.80;;;;;;4932604;55;20295;-36
2023/03/18 20:06:46;;;;;;;;;;;20.50;51.50;;;;;;4890171;55;20291;-34
2023/03/18 20:11:48;;;;;;;;;;;20.50;50.90;;;;;;4752110;55;20088;-34
2023/03/18 20:16:48;;;;;;;;;;;20.50;50.80;;;;;;4968406;55;20052;-34
2023/03/18 20:21:49;;;;;;;;;;;20.50;50.80;;;;;;4752030;58;20108;-36
2023/03/18 20:26:50;;;;;;;;;;;20.50;50.90;;;;;;4916831;55;20068;-33
2023/03/18 20:31:51;;;;;;;;;;;20.50;50.90;;;;;;4793672;55;20291;-34
2023/03/18 20:36:52;;;;;;;;;;;20.50;50.80;;;;;;4811810;55;20064;-34
2023/03/18 20:41:52;;;;;;;;;;;20.50;50.90;;;;;;4788139;55;20112;-35
2023/03/18 20:46:53;;;;;;;;;;;20.50;50.80;;;;;;4751111;58;20354;-35
2023/03/18 20:51:54;;;;;;;;;;;20.50;50.90;;;;;;4813818;55;20064;-35
2023/03/18 20:56:55;;;;;;;;;;;20.50;50.90;;;;;;4912169;54;20327;-35
2023/03/18 21:01:55;;;;;;;;;;;20.50;50.80;;;;;;4908555;55;20306;-33
2023/03/18 21:06:56;;;;;;;;;;;20.50;50.90;;;;;;4793036;55;20053;-35
2023/03/18 21:11:57;;;;;;;;;;;20.50;50.80;;;;;;5020000;55;20299;-34
2023/03/18 21:16:57;;;;;;;;;;;20.50;50.80;;;;;;4791959;55;20072;-35
2023/03/18 21:21:59;;;;;;;;;;;20.50;50.80;;;;;;5066787;55;20135;-35
2023/03/18 21:26:59;;;;;;;;;;;20.50;50.80;;;;;;4806974;55;20413;-35
2023/03/18 21:32:01;;;;;;;;;;;20.50;50.80;;;;;;4751587;58;20056;-33
2023/03/18 21:37:02;;;;;;;;;;;20.50;50.80;;;;;;4756814;55;20284;-36
2023/03/18 21:42:02;;;;;;;;;;;20.50;50.70;;;;;;4751613;58;20070;-33
2023/03/18 21:47:03;;;;;;;;;;;20.50;50.80;;;;;;4970346;55;20343;-34
2023/03/18 21:52:04;;;;;;;;;;;20.50;50.70;;;;;;4782709;55;20068;-34
2023/03/18 21:57:09;;;;;;;;;;;20.50;50.70;;;;;;4859503;54;20053;-33
2023/03/18 22:02:29;;;;;;;;;;;20.50;50.70;;;;;;4998978;55;20076;-34
2023/03/18 22:07:30;;;;;;;;;;;20.50;50.60;;;;;;4884683;55;20358;-34
2023/03/18 22:12:31;;;;;;;;;;;20.50;51.30;;;;;;4919623;55;20105;-35
2023/03/18 22:17:32;;;;;;;;;;;20.50;50.70;;;;;;4800866;55;20195;-34
2023/03/18 22:22:34;;;;;;;;;;;20.50;50.60;;;;;;4799240;55;20064;-34
2023/03/18 22:27:35;;;;;;;;;;;20.50;50.60;;;;;;4907598;55;20072;-34
2023/03/18 22:32:42;;;;;;;;;;;20.40;50.60;;;;;;5054960;55;20175;-34
2023/03/18 22:37:43;;;;;;;;;;;20.50;50.60;;;;;;4799591;55;20104;-34
2023/03/18 22:42:48;;;;;;;;;;;20.50;50.60;;;;;;4752326;55;20105;-33
2023/03/18 22:47:49;;;;;;;;;;;20.50;50.60;;;;;;4919752;55;20108;-34
2023/03/18 22:52:52;;;;;;;;;;;20.40;50.50;;;;;;4787765;55;20112;-36
2023/03/18 22:57:52;;;;;;;;;;;20.50;50.60;;;;;;4781416;55;20092;-34
2023/03/18 23:02:53;;;;;;;;;;;20.50;50.60;;;;;;4815408;55;20089;-35
2023/03/18 23:07:54;;;;;;;;;;;20.40;50.50;;;;;;4751024;58;20116;-34
2023/03/18 23:12:55;;;;;;;;;;;20.50;50.70;;;;;;4751849;58;20072;-34
2023/03/18 23:17:55;;;;;;;;;;;20.50;50.50;;;;;;4813495;55;20073;-34
2023/03/18 23:22:56;;;;;;;;;;;20.40;50.50;;;;;;4793944;55;20072;-34
2023/03/18 23:27:57;;;;;;;;;;;20.50;50.60;;;;;;4840684;55;20297;-34
2023/03/18 23:32:57;;;;;;;;;;;20.50;50.60;;;;;;4873252;55;20076;-33
2023/03/18 23:37:58;;;;;;;;;;;20.50;50.50;;;;;;4752134;58;20053;-35
2023/03/18 23:42:59;;;;;;;;;;;20.40;50.50;;;;;;4800041;55;20104;-34
2023/03/18 23:47:59;;;;;;;;;;;20.50;50.50;;;;;;4777860;55;20112;-32
2023/03/18 23:53:00;;;;;;;;;;;20.50;50.50;;;;;;4868374;55;20061;-34
2023/03/18 23:58:02;;;;;;;;;;;20.50;50.50;;;;;;4851468;55;20064;-35
